createdAt,value
2023-07-25T00:01:08.911Z,100787.41
2023-07-25T00:03:37.095Z,100791.41
2023-07-25T00:06:04.957Z,100787.03
2023-07-25T00:08:33.482Z,100784.50
2023-07-25T00:11:01.541Z,100785.81
2023-07-25T00:13:29.421Z,100787.81
2023-07-25T00:15:57.068Z,100786.59
2023-07-25T00:18:24.664Z,100789.59
2023-07-25T00:20:52.259Z,100786.06
2023-07-25T00:23:20.355Z,100791.91
2023-07-25T00:25:48.048Z,100791.06
2023-07-25T00:28:15.735Z,100787.53
2023-07-25T00:30:43.360Z,100793.22
2023-07-25T00:33:10.972Z,100793.34
2023-07-25T00:35:38.797Z,100790.00
2023-07-25T00:38:06.610Z,100790.97
2023-07-25T00:40:38.940Z,100790.31
2023-07-25T00:43:06.685Z,100788.94
2023-07-25T00:45:34.873Z,100795.44
2023-07-25T00:48:04.154Z,100793.75
2023-07-25T00:50:32.226Z,100792.91
2023-07-25T00:53:01.292Z,100782.63
2023-07-25T00:55:29.865Z,100784.44
2023-07-25T00:57:57.582Z,100795.19
2023-07-25T01:00:28.877Z,100785.41
2023-07-25T01:02:56.752Z,100787.28
2023-07-25T01:05:26.789Z,100783.75
2023-07-25T01:07:54.619Z,100777.84
2023-07-25T01:10:22.256Z,100781.38
2023-07-25T01:12:49.921Z,100774.16
2023-07-25T01:15:17.661Z,100775.69
2023-07-25T01:17:45.482Z,100766.94
2023-07-25T01:20:13.504Z,100778.53
2023-07-25T01:22:44.833Z,100770.63
2023-07-25T01:25:12.591Z,100771.94
2023-07-25T01:27:40.181Z,100777.75
2023-07-25T01:30:08.518Z,100776.38
2023-07-25T01:32:36.287Z,100776.38
2023-07-25T01:35:04.442Z,100772.00
2023-07-25T01:37:32.063Z,100777.50
2023-07-25T01:39:59.984Z,100771.47
2023-07-25T01:42:27.827Z,100766.41
2023-07-25T01:44:55.481Z,100766.00
2023-07-25T01:47:27.282Z,100759.25
2023-07-25T01:49:55.600Z,100757.34
2023-07-25T01:52:23.263Z,100758.25
2023-07-25T01:54:53.147Z,100761.53
2023-07-25T01:57:20.907Z,100761.81
2023-07-25T01:59:48.926Z,100755.75
2023-07-25T02:02:16.574Z,100761.28
2023-07-25T02:04:44.244Z,100765.66
2023-07-25T02:07:11.829Z,100761.13
2023-07-25T02:09:39.439Z,100763.13
2023-07-25T02:12:08.716Z,100767.66
2023-07-25T02:14:36.329Z,100761.72
2023-07-25T02:17:06.695Z,100767.53
2023-07-25T02:19:34.432Z,100764.88
2023-07-25T02:22:02.030Z,100766.00
2023-07-25T02:24:29.923Z,100767.84
2023-07-25T02:26:57.655Z,100763.47
2023-07-25T02:29:26.024Z,100763.78
2023-07-25T02:31:53.571Z,100760.38
2023-07-25T02:34:21.614Z,100765.91
2023-07-25T02:36:49.247Z,100760.84
2023-07-25T02:39:16.993Z,100758.47
2023-07-25T02:41:44.764Z,100757.91
2023-07-25T02:44:12.367Z,100758.88
2023-07-25T02:46:39.995Z,100763.56
2023-07-25T02:49:07.805Z,100765.53
2023-07-25T02:51:37.361Z,100763.03
2023-07-25T02:54:04.975Z,100765.72
2023-07-25T02:56:32.579Z,100749.06
2023-07-25T02:59:00.210Z,100751.50
2023-07-25T03:01:27.809Z,100754.75
2023-07-25T03:03:55.464Z,100740.81
2023-07-25T03:06:23.150Z,100743.91
2023-07-25T03:08:50.793Z,100747.16
2023-07-25T03:11:18.412Z,100737.72
2023-07-25T03:13:46.210Z,100738.84
2023-07-25T03:16:13.956Z,100738.00
2023-07-25T03:18:41.608Z,100734.59
2023-07-25T03:21:09.166Z,100732.94
2023-07-25T03:23:36.790Z,100736.44
2023-07-25T03:26:04.898Z,100735.78
2023-07-25T03:28:32.521Z,100743.66
2023-07-25T03:31:00.293Z,100737.44
2023-07-25T03:33:28.988Z,100737.63
2023-07-25T03:35:56.834Z,100740.59
2023-07-25T03:38:24.460Z,100742.69
2023-07-25T03:40:52.444Z,100748.47
2023-07-25T03:43:21.409Z,100748.06
2023-07-25T03:45:49.133Z,100750.19
2023-07-25T03:48:16.797Z,100751.19
2023-07-25T03:50:44.436Z,100747.78
2023-07-25T03:53:12.133Z,100751.34
2023-07-25T03:55:39.773Z,100747.94
2023-07-25T03:58:07.527Z,100746.28
2023-07-25T04:00:35.223Z,100740.19
2023-07-25T04:03:14.198Z,100747.41
2023-07-25T04:05:43.489Z,100739.47
2023-07-25T04:08:11.206Z,100749.50
2023-07-25T04:10:39.725Z,100745.13
2023-07-25T04:13:07.310Z,100752.47
2023-07-25T04:15:35.069Z,100748.25
2023-07-25T04:18:03.077Z,100752.88
2023-07-25T04:20:30.792Z,100747.69
2023-07-25T04:22:59.888Z,100748.53
2023-07-25T04:25:28.010Z,100738.81
2023-07-25T04:27:55.564Z,100737.53
2023-07-25T04:30:23.223Z,100749.81
2023-07-25T04:32:51.028Z,100745.13
2023-07-25T04:35:18.778Z,100743.88
2023-07-25T04:37:46.451Z,100760.34
2023-07-25T04:40:15.010Z,100751.91
2023-07-25T04:42:42.740Z,100754.00
2023-07-25T04:45:11.774Z,100755.41
2023-07-25T04:47:39.579Z,100748.91
2023-07-25T04:50:07.501Z,100752.13
2023-07-25T04:52:36.398Z,100752.81
2023-07-25T04:55:04.117Z,100754.53
2023-07-25T04:57:31.763Z,100755.94
2023-07-25T04:59:59.482Z,100755.75
2023-07-25T05:02:27.164Z,100759.31
2023-07-25T05:04:54.825Z,100759.59
2023-07-25T05:07:22.461Z,100759.44
2023-07-25T05:09:50.171Z,100763.81
2023-07-25T05:12:17.772Z,100757.31
2023-07-25T05:14:45.375Z,100759.72
2023-07-25T05:17:12.954Z,100758.03
2023-07-25T05:19:42.881Z,100761.38
2023-07-25T05:22:10.632Z,100761.09
2023-07-25T05:24:38.294Z,100772.44
2023-07-25T05:27:06.331Z,100778.91
2023-07-25T05:29:34.857Z,100771.78
2023-07-25T05:32:02.489Z,100780.78
2023-07-25T05:34:30.177Z,100764.81
2023-07-25T05:36:57.783Z,100778.47
2023-07-25T05:39:25.567Z,100769.53
2023-07-25T05:41:53.159Z,100767.09
2023-07-25T05:44:20.823Z,100769.03
2023-07-25T05:46:48.536Z,100767.97
2023-07-25T05:49:16.432Z,100768.16
2023-07-25T05:51:44.610Z,100764.66
2023-07-25T05:54:16.202Z,100752.97
2023-07-25T05:56:43.846Z,100762.38
2023-07-25T05:59:12.862Z,100769.44
2023-07-25T06:01:41.320Z,100771.03
2023-07-25T06:04:08.959Z,100762.94
2023-07-25T06:06:36.542Z,100771.00
2023-07-25T06:09:04.629Z,100764.47
2023-07-25T06:11:32.571Z,100769.25
2023-07-25T06:14:00.479Z,100772.28
2023-07-25T06:16:28.193Z,100778.88
2023-07-25T06:18:56.068Z,100782.91
2023-07-25T06:21:23.964Z,100772.88
2023-07-25T06:23:51.588Z,100769.34
2023-07-25T06:26:19.257Z,100772.53
2023-07-25T06:28:46.864Z,100769.00
2023-07-25T06:31:14.592Z,100772.03
2023-07-25T06:33:42.246Z,100778.44
2023-07-25T06:36:09.901Z,100781.78
2023-07-25T06:38:37.473Z,100787.03
2023-07-25T06:41:05.157Z,100774.78
2023-07-25T06:43:32.713Z,100777.47
2023-07-25T06:46:03.110Z,100773.59
2023-07-25T06:48:30.793Z,100773.59
2023-07-25T06:50:58.602Z,100782.34
2023-07-25T06:53:26.290Z,100776.44
2023-07-25T06:55:54.111Z,100775.94
2023-07-25T06:58:22.435Z,100780.69
2023-07-25T07:00:50.030Z,100777.31
2023-07-25T07:03:17.729Z,100778.19
2023-07-25T07:05:55.226Z,100783.28
2023-07-25T07:08:23.934Z,100785.22
2023-07-25T07:10:55.728Z,100788.88
2023-07-25T07:13:24.241Z,100794.97
2023-07-25T07:15:52.456Z,100800.66
2023-07-25T07:18:20.262Z,100796.66
2023-07-25T07:20:49.712Z,100798.88
2023-07-25T07:23:18.000Z,100796.38
2023-07-25T07:25:46.244Z,100807.03
2023-07-25T07:28:14.811Z,100802.97
2023-07-25T07:30:42.673Z,100796.16
2023-07-25T07:33:10.340Z,100807.47
2023-07-25T07:35:38.010Z,100807.16
2023-07-25T07:38:05.640Z,100802.69
2023-07-25T07:40:34.246Z,100801.38
2023-07-25T07:43:02.088Z,100801.63
2023-07-25T07:45:31.033Z,100799.09
2023-07-25T07:47:58.647Z,100808.13
2023-07-25T07:50:29.622Z,100808.16
2023-07-25T07:52:57.268Z,100802.84
2023-07-25T07:55:25.020Z,100798.31
2023-07-25T07:57:53.188Z,100799.28
2023-07-25T08:00:20.936Z,100800.16
2023-07-25T08:02:48.894Z,100795.88
2023-07-25T08:05:16.583Z,100808.41
2023-07-25T08:07:44.258Z,100810.25
2023-07-25T08:10:11.922Z,100808.53
2023-07-25T08:12:39.874Z,100804.91
2023-07-25T08:15:08.704Z,100807.31
2023-07-25T08:17:36.798Z,100809.19
2023-07-25T08:20:05.029Z,100808.50
2023-07-25T08:22:32.684Z,100805.69
2023-07-25T08:25:00.561Z,100802.44
2023-07-25T08:27:28.463Z,100799.31
2023-07-25T08:29:56.696Z,100803.38
2023-07-25T08:32:26.853Z,100797.84
2023-07-25T08:34:54.928Z,100803.59
2023-07-25T08:37:24.592Z,100807.31
2023-07-25T08:39:52.313Z,100806.84
2023-07-25T08:42:23.287Z,100797.63
2023-07-25T08:44:52.927Z,100794.13
2023-07-25T08:47:28.632Z,100796.31
2023-07-25T08:49:58.415Z,100793.91
2023-07-25T08:52:31.797Z,100801.75
2023-07-25T08:54:59.406Z,100799.63
2023-07-25T08:57:28.944Z,100799.41
2023-07-25T08:59:57.423Z,100797.47
2023-07-25T09:02:26.790Z,100802.16
2023-07-25T09:04:55.337Z,100802.50
2023-07-25T09:07:22.959Z,100803.41
2023-07-25T09:09:50.980Z,100804.28
2023-07-25T09:12:19.216Z,100808.66
2023-07-25T09:14:46.894Z,100811.09
2023-07-25T09:17:14.550Z,100811.66
2023-07-25T09:19:42.816Z,100809.31
2023-07-25T09:22:30.297Z,100803.06
2023-07-25T09:24:59.578Z,100811.34
2023-07-25T09:27:27.929Z,100810.84
2023-07-25T09:29:55.716Z,100812.09
2023-07-25T09:32:26.345Z,100818.75
2023-07-25T09:35:00.076Z,100812.38
2023-07-25T09:37:29.598Z,100814.41
2023-07-25T09:39:57.408Z,100815.63
2023-07-25T09:42:26.576Z,100814.34
2023-07-25T09:44:55.268Z,100808.44
2023-07-25T09:47:24.732Z,100814.03
2023-07-25T09:49:56.100Z,100815.53
2023-07-25T09:52:24.666Z,100818.94
2023-07-25T09:54:52.567Z,100812.84
2023-07-25T09:57:20.459Z,100808.13
2023-07-25T09:59:50.648Z,100813.00
2023-07-25T10:02:19.213Z,100813.66
2023-07-25T10:04:47.821Z,100811.44
2023-07-25T10:07:15.938Z,100815.94
2023-07-25T10:09:46.521Z,100809.50
2023-07-25T10:12:14.295Z,100814.09
2023-07-25T10:14:41.927Z,100821.16
2023-07-25T10:17:10.034Z,100812.28
2023-07-25T10:19:56.919Z,100827.69
2023-07-25T10:22:37.709Z,100824.09
2023-07-25T10:25:11.412Z,100815.69
2023-07-25T10:27:39.117Z,100824.81
2023-07-25T10:30:28.353Z,100821.47
2023-07-25T10:33:03.702Z,100808.84
2023-07-25T10:35:54.505Z,100814.16
2023-07-25T10:38:34.333Z,100822.50
2023-07-25T10:41:12.631Z,100824.44
2023-07-25T10:43:46.411Z,100819.47
2023-07-25T10:46:18.950Z,100810.84
2023-07-25T10:48:48.739Z,100815.63
2023-07-25T10:51:19.016Z,100813.03
2023-07-25T10:54:12.070Z,100823.22
2023-07-25T10:56:41.273Z,100811.94
2023-07-25T10:59:15.295Z,100811.13
2023-07-25T11:01:46.088Z,100812.09
2023-07-25T11:04:31.652Z,100801.59
2023-07-25T11:07:08.665Z,100803.06
2023-07-25T11:09:41.068Z,100798.88
2023-07-25T11:12:11.172Z,100794.69
2023-07-25T11:14:43.722Z,100798.88
2023-07-25T11:17:14.897Z,100795.63
2023-07-25T11:19:42.585Z,100791.78
2023-07-25T11:22:11.872Z,100793.66
2023-07-25T11:24:48.421Z,100788.22
2023-07-25T11:27:16.196Z,100789.84
2023-07-25T11:29:43.838Z,100785.56
2023-07-25T11:32:11.701Z,100783.75
2023-07-25T11:34:39.750Z,100786.94
2023-07-25T11:37:14.186Z,100796.06
2023-07-25T11:39:42.115Z,100793.56
2023-07-25T11:42:09.984Z,100794.53
2023-07-25T11:44:37.889Z,100792.44
2023-07-25T11:47:06.112Z,100798.38
2023-07-25T11:52:06.107Z,100782.56
2023-07-25T11:54:35.042Z,100785.81
2023-07-25T11:57:03.078Z,100789.47
2023-07-25T11:59:31.074Z,100783.38
2023-07-25T12:02:06.591Z,100785.00
2023-07-25T12:04:43.838Z,100780.44
2023-07-25T12:07:12.609Z,100771.69
2023-07-25T12:09:41.164Z,100789.00
2023-07-25T12:12:13.873Z,100789.97
2023-07-25T12:14:42.460Z,100792.56
2023-07-25T12:17:10.079Z,100791.88
2023-07-25T12:19:37.982Z,100795.88
2023-07-25T12:22:06.756Z,100799.25
2023-07-25T12:24:42.031Z,100796.75
2023-07-25T12:27:20.471Z,100791.81
2023-07-25T12:29:48.174Z,100795.63
2023-07-25T12:32:15.734Z,100794.88
2023-07-25T12:34:43.447Z,100784.50
2023-07-25T12:37:11.079Z,100783.22
2023-07-25T12:39:40.475Z,100787.75
2023-07-25T12:42:08.298Z,100795.50
2023-07-25T12:44:36.733Z,100794.38
2023-07-25T12:47:05.731Z,100787.56
2023-07-25T12:49:34.457Z,100795.72
2023-07-25T12:52:02.271Z,100782.09
2023-07-25T12:54:29.901Z,100793.94
2023-07-25T12:56:58.038Z,100792.66
2023-07-25T12:59:25.748Z,100783.25
2023-07-25T13:01:53.569Z,100782.38
2023-07-25T13:04:21.438Z,100789.41
2023-07-25T13:06:49.396Z,100790.72
2023-07-25T13:09:17.016Z,100792.28
2023-07-25T13:11:45.760Z,100793.38
2023-07-25T13:14:13.422Z,100777.50
2023-07-25T13:16:41.166Z,100789.84
2023-07-25T13:19:12.826Z,100781.88
2023-07-25T13:21:40.550Z,100775.28
2023-07-25T13:24:08.261Z,100778.78
2023-07-25T13:26:35.943Z,100779.97
2023-07-25T13:29:04.920Z,100777.91
2023-07-25T13:31:32.971Z,100766.03
2023-07-25T13:34:00.796Z,100780.84
2023-07-25T13:36:28.441Z,100777.72
2023-07-25T13:38:56.071Z,100775.94
2023-07-25T13:41:23.895Z,100782.91
2023-07-25T13:43:51.551Z,100769.53
2023-07-25T13:46:19.263Z,100778.13
2023-07-25T13:48:48.746Z,100776.25
2023-07-25T13:51:16.435Z,100772.44
2023-07-25T13:53:44.024Z,100775.94
2023-07-25T13:56:12.230Z,100776.16
2023-07-25T13:58:39.856Z,100767.94
2023-07-25T14:01:07.530Z,100765.44
2023-07-25T14:03:35.228Z,100773.66
2023-07-25T14:06:02.946Z,100775.13
2023-07-25T14:08:30.824Z,100772.25
2023-07-25T14:10:58.517Z,100780.84
2023-07-25T14:13:27.265Z,100768.94
2023-07-25T14:15:56.013Z,100771.22
2023-07-25T14:18:24.493Z,100773.66
2023-07-25T14:20:53.845Z,100766.69
2023-07-25T14:23:23.229Z,100763.50
2023-07-25T14:25:50.837Z,100763.94
2023-07-25T14:28:18.473Z,100760.81
2023-07-25T14:30:46.488Z,100763.75
2023-07-25T14:33:16.058Z,100767.97
2023-07-25T14:35:43.952Z,100767.56
2023-07-25T14:38:14.013Z,100770.09
2023-07-25T14:40:42.400Z,100763.88
2023-07-25T14:43:09.972Z,100769.97
2023-07-25T14:45:37.608Z,100763.06
2023-07-25T14:48:05.905Z,100770.59
2023-07-25T14:50:33.887Z,100763.91
2023-07-25T14:53:01.761Z,100769.34
2023-07-25T14:55:29.581Z,100772.25
2023-07-25T14:57:57.193Z,100774.78
2023-07-25T15:00:24.893Z,100768.94
2023-07-25T15:02:52.644Z,100766.41
2023-07-25T15:05:20.366Z,100775.19
2023-07-25T15:07:48.023Z,100768.06
2023-07-25T15:10:15.993Z,100765.53
2023-07-25T15:12:43.712Z,100767.44
2023-07-25T15:15:11.726Z,100768.44
2023-07-25T15:17:39.458Z,100773.03
2023-07-25T15:20:11.687Z,100773.88
2023-07-25T15:22:39.734Z,100781.81
2023-07-25T15:25:07.844Z,100787.66
2023-07-25T15:27:35.636Z,100775.28
2023-07-25T15:30:04.245Z,100780.03
2023-07-25T15:32:33.002Z,100781.06
2023-07-25T15:35:01.409Z,100773.06
2023-07-25T15:37:29.267Z,100778.72
2023-07-25T15:39:56.843Z,100777.91
2023-07-25T15:42:24.538Z,100778.69
2023-07-25T15:44:52.082Z,100777.59
2023-07-25T15:47:19.681Z,100778.16
2023-07-25T15:49:47.625Z,100775.94
2023-07-25T15:52:15.324Z,100779.81
2023-07-25T15:54:42.949Z,100777.25
2023-07-25T15:57:10.622Z,100777.84
2023-07-25T15:59:38.246Z,100778.19
2023-07-25T16:02:05.965Z,100773.53
2023-07-25T16:04:33.600Z,100768.31
2023-07-25T16:07:01.315Z,100766.47
2023-07-25T16:09:33.441Z,100761.38
2023-07-25T16:12:02.358Z,100760.97
2023-07-25T16:14:30.047Z,100763.72
2023-07-25T16:16:57.789Z,100764.28
2023-07-25T16:19:27.869Z,100766.03
2023-07-25T16:21:55.525Z,100769.72
2023-07-25T16:24:23.200Z,100768.69
2023-07-25T16:26:51.186Z,100763.25
2023-07-25T16:29:18.934Z,100765.97
2023-07-25T16:31:49.104Z,100760.47
2023-07-25T16:34:18.685Z,100773.63
2023-07-25T16:36:46.388Z,100765.28
2023-07-25T16:39:14.050Z,100761.28
2023-07-25T16:41:41.696Z,100755.03
2023-07-25T16:44:09.848Z,100758.78
2023-07-25T16:46:37.639Z,100761.03
2023-07-25T16:49:05.365Z,100756.44
2023-07-25T16:51:33.180Z,100757.66
2023-07-25T16:54:01.106Z,100761.38
2023-07-25T16:56:28.713Z,100760.50
2023-07-25T16:58:56.504Z,100760.69
2023-07-25T17:01:24.460Z,100761.06
2023-07-25T17:03:52.332Z,100756.41
2023-07-25T17:06:19.998Z,100763.47
2023-07-25T17:08:47.682Z,100764.66
2023-07-25T17:11:16.649Z,100761.72
2023-07-25T17:13:44.362Z,100767.28
2023-07-25T17:16:12.087Z,100757.19
2023-07-25T17:18:39.958Z,100763.34
2023-07-25T17:21:07.649Z,100759.31
2023-07-25T17:23:35.341Z,100765.25
2023-07-25T17:26:03.323Z,100770.16
2023-07-25T17:28:31.042Z,100762.72
2023-07-25T17:30:58.922Z,100768.63
2023-07-25T17:33:26.882Z,100764.34
2023-07-25T17:35:54.599Z,100770.28
2023-07-25T17:38:22.437Z,100764.31
2023-07-25T17:40:50.311Z,100772.91
2023-07-25T17:43:17.972Z,100770.88
2023-07-25T17:45:45.718Z,100770.75
2023-07-25T18:28:54.224Z,100789.22
2023-07-25T18:31:22.031Z,100792.16
2023-07-25T18:33:49.710Z,100786.25
2023-07-25T18:36:17.377Z,100788.13
2023-07-25T18:38:45.103Z,100799.09
2023-07-25T18:41:12.958Z,100798.28
2023-07-25T18:43:40.580Z,100793.03
2023-07-25T18:46:08.301Z,100800.50
2023-07-25T18:48:35.987Z,100796.94
2023-07-25T18:51:03.762Z,100803.72
2023-07-25T18:53:31.493Z,100806.59
2023-07-25T18:55:59.108Z,100801.56
2023-07-25T18:58:28.413Z,100797.34
2023-07-25T19:00:56.118Z,100801.91
2023-07-25T19:03:24.000Z,100803.09
2023-07-25T19:05:53.567Z,100807.84
2023-07-25T19:08:21.308Z,100812.38
2023-07-25T19:10:48.943Z,100803.66
2023-07-25T19:13:16.640Z,100810.09
2023-07-25T19:15:44.800Z,100815.00
2023-07-25T19:18:12.498Z,100816.41
2023-07-25T19:20:40.501Z,100819.44
2023-07-25T19:23:24.801Z,100816.06
2023-07-25T19:26:00.563Z,100819.78
2023-07-25T19:28:29.603Z,100829.44
2023-07-25T19:30:58.778Z,100827.41
2023-07-25T19:33:29.052Z,100832.84
2023-07-25T19:35:59.245Z,100836.56
2023-07-25T19:38:28.294Z,100851.59
2023-07-25T19:40:56.459Z,100835.25
2023-07-25T19:43:24.552Z,100828.34
2023-07-25T19:45:56.898Z,100835.63
2023-07-25T19:48:24.576Z,100838.16
2023-07-25T19:50:52.249Z,100839.84
2023-07-25T19:53:19.923Z,100845.91
2023-07-25T19:55:56.539Z,100838.50
2023-07-25T19:58:24.283Z,100835.13
2023-07-25T20:00:51.875Z,100848.13
2023-07-25T20:03:19.770Z,100848.09
2023-07-25T20:05:47.595Z,100847.44
2023-07-25T20:08:15.707Z,100855.03
2023-07-25T20:10:44.313Z,100852.47
2023-07-25T20:13:12.333Z,100852.97
2023-07-25T20:15:40.016Z,100852.78
2023-07-25T20:18:07.793Z,100850.88
2023-07-25T20:20:35.540Z,100843.47
2023-07-25T20:23:03.289Z,100849.88
2023-07-25T20:25:30.965Z,100847.50
2023-07-25T20:27:58.695Z,100853.72
2023-07-25T20:30:26.702Z,100854.38
2023-07-25T20:32:54.443Z,100852.00
2023-07-25T20:35:22.186Z,100860.25
2023-07-25T20:37:49.865Z,100863.25
2023-07-25T20:40:18.330Z,100863.44
2023-07-25T20:42:45.962Z,100859.41
2023-07-25T20:45:15.653Z,100854.34
2023-07-25T20:47:43.732Z,100852.97
2023-07-25T20:50:11.408Z,100856.13
2023-07-25T20:52:39.046Z,100861.84
2023-07-25T20:55:08.073Z,100856.97
2023-07-25T20:57:35.812Z,100862.81
2023-07-25T21:00:03.793Z,100855.06
2023-07-25T21:02:31.713Z,100858.94
2023-07-25T21:04:59.458Z,100855.22
2023-07-25T21:07:27.580Z,100860.63
2023-07-25T21:09:55.412Z,100853.69
2023-07-25T21:12:23.132Z,100846.63
2023-07-25T21:14:51.032Z,100851.19
2023-07-25T21:17:18.747Z,100849.47
2023-07-25T21:19:46.405Z,100845.28
2023-07-25T21:22:14.263Z,100848.13
2023-07-25T21:24:42.056Z,100857.34
2023-07-25T21:27:09.785Z,100849.44
2023-07-25T21:29:37.439Z,100850.94
2023-07-25T21:32:05.606Z,100855.16
2023-07-25T21:34:33.324Z,100862.06
2023-07-25T21:37:00.967Z,100864.44
2023-07-25T21:39:28.537Z,100859.72
2023-07-25T21:41:56.220Z,100860.56
2023-07-25T21:44:23.853Z,100862.94
2023-07-25T21:46:51.562Z,100858.75
2023-07-25T21:49:19.355Z,100865.63
2023-07-25T21:51:47.002Z,100859.41
2023-07-25T21:54:14.687Z,100860.56
2023-07-25T21:56:42.778Z,100861.88
2023-07-25T21:59:10.477Z,100860.88
2023-07-25T22:01:39.269Z,100853.50
2023-07-25T22:04:09.098Z,100859.91
2023-07-25T22:06:36.760Z,100857.34
2023-07-25T22:09:05.172Z,100855.66
2023-07-25T22:11:32.870Z,100846.91
2023-07-25T22:14:00.611Z,100857.97
2023-07-25T22:16:28.457Z,100850.09
2023-07-25T22:18:56.158Z,100853.94
2023-07-25T22:21:23.824Z,100839.81
2023-07-25T22:23:51.452Z,100834.53
2023-07-25T22:26:19.158Z,100843.63
2023-07-25T22:28:46.833Z,100837.41
2023-07-25T22:31:14.958Z,100838.38
2023-07-25T22:33:42.603Z,100844.78
2023-07-25T22:36:10.267Z,100840.56
2023-07-25T22:38:38.232Z,100837.34
2023-07-25T22:41:05.992Z,100836.50
2023-07-25T22:43:33.654Z,100833.28
2023-07-25T22:46:01.363Z,100828.94
2023-07-25T22:48:29.135Z,100832.28
2023-07-25T22:50:56.805Z,100830.44
2023-07-25T22:53:24.521Z,100834.31
2023-07-25T22:55:52.249Z,100825.38
2023-07-25T22:58:19.858Z,100833.94
2023-07-25T23:00:47.843Z,100827.84
2023-07-25T23:03:16.001Z,100835.91
2023-07-25T23:05:43.782Z,100836.63
2023-07-25T23:08:11.573Z,100833.22
2023-07-25T23:10:39.279Z,100838.09
2023-07-25T23:13:07.049Z,100837.56
2023-07-25T23:15:34.740Z,100842.41
2023-07-25T23:18:02.591Z,100841.88
2023-07-25T23:20:30.931Z,100836.50
2023-07-25T23:22:58.885Z,100832.81
2023-07-25T23:25:26.532Z,100832.97
2023-07-25T23:27:54.112Z,100835.16
2023-07-25T23:30:21.739Z,100827.38
2023-07-25T23:32:49.415Z,100822.00
2023-07-25T23:35:17.172Z,100825.16
2023-07-25T23:37:45.171Z,100828.00
2023-07-25T23:40:13.334Z,100824.50
2023-07-25T23:42:40.973Z,100822.94
2023-07-25T23:45:09.008Z,100823.41
2023-07-25T23:47:36.757Z,100811.97
2023-07-25T23:50:06.445Z,100809.59
2023-07-25T23:52:35.314Z,100807.38
2023-07-25T23:55:04.080Z,100803.31
2023-07-25T23:57:31.799Z,100808.84
2023-07-25T23:59:59.391Z,100809.84
